Time;durP1;ratioP1;P1;durP2;ratioP2;P2;SDS_P1;SDS_P2;PMS_P1;PMS_P2;Temp;Humidity;BMP_temperature;BMP_pressure;BME280_temperature;BME280_humidity;BME280_pressure;Samples;Min_cycle;Max_cycle;Signal;HPM_P1;HPM_P2
2024/02/18 00:01:38;;;;;;;21.6;13.2;;;;;;;9.2;99.45801;952.3276;;;;
2024/02/18 00:04:03;;;;;;;20;13.1;;;;;;;9.22;99.33691;952.4289;;;;
2024/02/18 00:06:29;;;;;;;17.4;11.1;;;;;;;9.22;99.3623;952.4116;;;;
2024/02/18 00:08:54;;;;;;;19;11.3;;;;;;;9.23;99.31836;952.3658;;;;
2024/02/18 00:11:19;;;;;;;21.2;11.5;;;;;;;9.28;98.94238;952.3113;;;;
2024/02/18 00:13:44;;;;;;;17.7;10.8;;;;;;;9.27;99.11328;952.4048;;;;
2024/02/18 00:16:09;;;;;;;16.5;10.9;;;;;;;9.24;98.94531;952.4076;;;;
2024/02/18 00:18:34;;;;;;;17.5;11;;;;;;;9.25;99.07422;952.3691;;;;
2024/02/18 00:20:59;;;;;;;14.7;10.5;;;;;;;9.25;99.07422;952.3532;;;;
2024/02/18 00:23:24;;;;;;;16.4;10.6;;;;;;;9.23;99.05664;952.408;;;;
2024/02/18 00:25:49;;;;;;;18.6;11.6;;;;;;;9.24;99.02441;952.3106;;;;
2024/02/18 00:28:15;;;;;;;20.6;11.8;;;;;;;9.23;98.98633;952.3069;;;;
2024/02/18 00:30:40;;;;;;;18.7;12.6;;;;;;;9.23;99.18262;952.2951;;;;
2024/02/18 00:33:05;;;;;;;20;12.5;;;;;;;9.22;99.31641;952.2361;;;;
2024/02/18 00:35:30;;;;;;;20.9;12.6;;;;;;;9.21;99.40332;952.2603;;;;
2024/02/18 00:37:55;;;;;;;23.6;13.2;;;;;;;9.17;99.29297;952.19;;;;
2024/02/18 00:40:21;;;;;;;21.6;13.3;;;;;;;9.19;99.10352;952.1804;;;;
2024/02/18 00:42:45;;;;;;;23.8;14.3;;;;;;;9.08;99.48828;952.1622;;;;
2024/02/18 00:45:12;;;;;;;22.3;14.2;;;;;;;9.11;99.42871;952.1546;;;;
2024/02/18 00:47:36;;;;;;;22.2;14.6;;;;;;;9.12;99.74902;952.0778;;;;
2024/02/18 00:50:01;;;;;;;20.7;13.4;;;;;;;9.07;99.36328;952.1594;;;;
2024/02/18 00:52:26;;;;;;;22.6;14;;;;;;;9.1;99.49414;952.2058;;;;
2024/02/18 00:54:51;;;;;;;25.5;14;;;;;;;9.07;99.83887;952.1545;;;;
2024/02/18 00:57:16;;;;;;;22.5;13.9;;;;;;;9.08;99.96582;952.1964;;;;
2024/02/18 00:59:41;;;;;;;22.4;14.6;;;;;;;9.08;100;952.1397;;;;
2024/02/18 01:02:07;;;;;;;24.4;14.8;;;;;;;9.07;100;952.1372;;;;
2024/02/18 01:04:32;;;;;;;23.8;14.6;;;;;;;9.09;100;952.1083;;;;
2024/02/18 01:06:57;;;;;;;24;15;;;;;;;9.08;100;952.1177;;;;
2024/02/18 01:09:22;;;;;;;23.6;14.6;;;;;;;9.06;100;952.0817;;;;
2024/02/18 01:11:47;;;;;;;25.1;14.6;;;;;;;9.08;99.81836;952.1265;;;;
2024/02/18 01:14:12;;;;;;;23;14.6;;;;;;;9.07;100;952.1306;;;;
2024/02/18 01:16:39;;;;;;;24.4;14.8;;;;;;;9.06;100;952.1033;;;;
2024/02/18 01:19:02;;;;;;;25.3;15;;;;;;;9.08;100;952.1739;;;;
2024/02/18 01:21:38;;;;;;;22.1;13.7;;;;;;;9.08;100;952.1367;;;;
2024/02/18 01:24:03;;;;;;;23.6;14.3;;;;;;;9.09;100;952.1021;;;;
2024/02/18 01:26:28;;;;;;;26.1;14.9;;;;;;;9.09;100;952.0988;;;;
2024/02/18 01:28:53;;;;;;;24;14.4;;;;;;;9.08;100;952.1898;;;;
2024/02/18 01:31:19;;;;;;;22.1;13.9;;;;;;;9.1;100;952.1892;;;;
2024/02/18 01:33:45;;;;;;;22.7;14.7;;;;;;;9.1;100;952.177;;;;
2024/02/18 01:36:08;;;;;;;24.3;13.9;;;;;;;9.09;100;952.2141;;;;
2024/02/18 01:38:35;;;;;;;20.4;13.3;;;;;;;9.07;100;952.2198;;;;
2024/02/18 01:40:59;;;;;;;22.7;13.8;;;;;;;9.13;99.78516;952.175;;;;
2024/02/18 01:43:24;;;;;;;22.2;12.9;;;;;;;9.11;99.91602;952.1853;;;;
2024/02/18 01:45:49;;;;;;;22.4;14;;;;;;;9.07;100;952.265;;;;
2024/02/18 01:48:14;;;;;;;22.6;13.9;;;;;;;9.1;99.74316;952.3026;;;;
2024/02/18 01:50:39;;;;;;;25.5;14.1;;;;;;;9.08;99.84082;952.2908;;;;
2024/02/18 01:53:05;;;;;;;22.3;14.3;;;;;;;9.03;100;952.2946;;;;
2024/02/18 01:55:30;;;;;;;23;14.1;;;;;;;9.03;99.7832;952.2776;;;;
2024/02/18 01:57:55;;;;;;;23.8;14.7;;;;;;;9.01;99.7334;952.3033;;;;
2024/02/18 02:00:20;;;;;;;22.8;14.8;;;;;;;9;99.45996;952.2877;;;;
2024/02/18 02:02:45;;;;;;;23.1;14.1;;;;;;;8.98;98.87402;952.2567;;;;
2024/02/18 02:05:11;;;;;;;24.5;13.7;;;;;;;9.01;98.39063;952.3184;;;;
2024/02/18 02:07:36;;;;;;;23.6;14.6;;;;;;;9.03;98.93164;952.3405;;;;
2024/02/18 02:10:01;;;;;;;25.1;14.6;;;;;;;9;99.75586;952.3441;;;;
2024/02/18 02:12:26;;;;;;;24.8;14.4;;;;;;;9.03;99.63672;952.3151;;;;
2024/02/18 02:14:51;;;;;;;25.2;15.4;;;;;;;9.05;99.87988;952.346;;;;
2024/02/18 02:17:18;;;;;;;25.8;15.5;;;;;;;9.03;100;952.2889;;;;
2024/02/18 02:19:41;;;;;;;28.9;16.3;;;;;;;9.05;99.93457;952.2609;;;;
2024/02/18 02:22:06;;;;;;;28.4;15.8;;;;;;;9.07;99.87305;952.2142;;;;
2024/02/18 02:24:31;;;;;;;27.3;15.6;;;;;;;9.05;99.4707;952.1769;;;;
2024/02/18 02:26:56;;;;;;;23.1;14.9;;;;;;;9.01;99.83594;952.1217;;;;
2024/02/18 02:29:21;;;;;;;26.8;15.2;;;;;;;9.02;99.79199;952.1685;;;;
2024/02/18 02:31:47;;;;;;;24.4;14.7;;;;;;;9.04;99.89844;952.0453;;;;
2024/02/18 02:34:12;;;;;;;26.5;15.7;;;;;;;9.1;99.89258;952.1002;;;;
2024/02/18 02:36:37;;;;;;;24.8;14.9;;;;;;;9.05;99.5498;952.1197;;;;
2024/02/18 02:39:02;;;;;;;26.5;14.7;;;;;;;9.01;99.64258;952.1031;;;;
2024/02/18 02:41:27;;;;;;;24;14.8;;;;;;;8.99;100;952.0728;;;;
2024/02/18 02:43:52;;;;;;;22.1;14.3;;;;;;;9.03;99.6123;952.0933;;;;
2024/02/18 02:46:17;;;;;;;22.8;13.6;;;;;;;8.97;98.85059;952.0291;;;;
2024/02/18 02:48:42;;;;;;;22;14.2;;;;;;;9.02;98.41504;952.0144;;;;
2024/02/18 02:51:08;;;;;;;23.7;15;;;;;;;9.04;98.1377;952.062;;;;
2024/02/18 02:53:32;;;;;;;24.3;14.4;;;;;;;9.04;98.75;952.0158;;;;
2024/02/18 02:55:59;;;;;;;25.8;15.6;;;;;;;9;99.33496;951.9302;;;;
2024/02/18 02:58:23;;;;;;;22.7;14.3;;;;;;;8.98;99.73828;951.9421;;;;
2024/02/18 03:00:48;;;;;;;25.6;15.3;;;;;;;8.97;100;951.9583;;;;
2024/02/18 03:03:13;;;;;;;26.9;15.7;;;;;;;8.93;100;951.9503;;;;
2024/02/18 03:05:42;;;;;;;25.1;15.2;;;;;;;8.97;100;951.9599;;;;
2024/02/18 03:08:08;;;;;;;22.5;14.7;;;;;;;9.01;100;951.9792;;;;
2024/02/18 03:10:33;;;;;;;24.2;15.2;;;;;;;9.01;100;951.8664;;;;
2024/02/18 03:12:59;;;;;;;25.5;15.1;;;;;;;8.95;100;951.9097;;;;
2024/02/18 03:15:23;;;;;;;24.8;15.5;;;;;;;8.98;100;951.887;;;;
2024/02/18 03:17:52;;;;;;;29;16.5;;;;;;;8.93;100;951.8179;;;;
2024/02/18 03:20:14;;;;;;;29.4;16;;;;;;;8.92;100;951.7635;;;;
2024/02/18 03:22:39;;;;;;;25.6;15.9;;;;;;;8.93;100;951.6724;;;;
2024/02/18 03:25:10;;;;;;;28.4;17.2;;;;;;;8.87;100;951.6567;;;;
2024/02/18 03:27:35;;;;;;;30.2;15.8;;;;;;;8.87;100;951.6424;;;;
2024/02/18 03:30:01;;;;;;;29.1;17.1;;;;;;;8.97;100;951.5793;;;;
2024/02/18 03:32:25;;;;;;;26.9;15.8;;;;;;;8.96;100;951.5083;;;;
2024/02/18 03:34:51;;;;;;;28.4;15.9;;;;;;;8.94;100;951.4399;;;;
2024/02/18 03:37:16;;;;;;;27.3;16.7;;;;;;;8.97;100;951.4642;;;;
2024/02/18 03:39:41;;;;;;;30;16.4;;;;;;;9;100;951.4423;;;;
2024/02/18 03:42:06;;;;;;;25.3;15.7;;;;;;;9.01;100;951.3797;;;;
2024/02/18 03:44:31;;;;;;;25.1;15.1;;;;;;;8.98;100;951.4153;;;;
2024/02/18 03:46:57;;;;;;;28.7;16.2;;;;;;;8.97;100;951.2919;;;;
2024/02/18 03:49:22;;;;;;;26.6;15.4;;;;;;;8.96;100;951.3248;;;;
2024/02/18 03:51:47;;;;;;;25;14.9;;;;;;;9;99.77832;951.3708;;;;
2024/02/18 03:54:13;;;;;;;26.3;15.2;;;;;;;8.96;99.50488;951.3342;;;;
2024/02/18 03:56:38;;;;;;;29.2;16.3;;;;;;;8.97;100;951.3474;;;;
2024/02/18 03:59:03;;;;;;;25.1;15;;;;;;;8.95;100;951.3077;;;;
2024/02/18 04:02:27;;;;;;;23.3;14.2;;;;;;;8.93;100;951.3553;;;;
2024/02/18 04:04:52;;;;;;;25.5;15.2;;;;;;;8.89;100;951.338;;;;
2024/02/18 04:07:18;;;;;;;25.9;15.4;;;;;;;8.87;100;951.381;;;;
2024/02/18 04:09:43;;;;;;;25;15.3;;;;;;;8.89;100;951.3557;;;;
2024/02/18 04:12:09;;;;;;;25;15.2;;;;;;;8.93;100;951.3641;;;;
2024/02/18 04:14:34;;;;;;;26.4;15.5;;;;;;;8.95;100;951.4199;;;;
2024/02/18 04:16:59;;;;;;;26.9;15.4;;;;;;;8.97;100;951.4037;;;;
2024/02/18 04:19:24;;;;;;;24.9;14.9;;;;;;;8.97;100;951.3967;;;;
2024/02/18 04:21:49;;;;;;;25.6;15.2;;;;;;;8.99;100;951.4148;;;;
2024/02/18 04:24:14;;;;;;;25;15.2;;;;;;;9.02;100;951.4473;;;;
2024/02/18 04:26:39;;;;;;;26;15.2;;;;;;;8.98;100;951.4257;;;;
2024/02/18 04:29:05;;;;;;;24.1;14.9;;;;;;;8.94;100;951.4543;;;;
2024/02/18 04:31:35;;;;;;;28.9;15.6;;;;;;;8.97;100;951.4163;;;;
2024/02/18 04:33:59;;;;;;;26.5;15.9;;;;;;;8.97;100;951.3967;;;;
2024/02/18 04:36:24;;;;;;;26.4;15.6;;;;;;;8.93;100;951.4069;;;;
2024/02/18 04:38:49;;;;;;;25.4;14.8;;;;;;;8.9;100;951.3814;;;;
2024/02/18 04:41:15;;;;;;;26.9;15.4;;;;;;;8.97;100;951.3353;;;;
2024/02/18 04:43:39;;;;;;;24.1;15;;;;;;;8.95;100;951.4189;;;;
2024/02/18 04:46:04;;;;;;;26.6;15.4;;;;;;;8.95;100;951.4174;;;;
2024/02/18 04:48:29;;;;;;;23.6;14;;;;;;;8.94;100;951.3645;;;;
2024/02/18 04:51:00;;;;;;;25.8;14.3;;;;;;;8.93;100;951.3649;;;;
2024/02/18 04:53:20;;;;;;;22.2;13.2;;;;;;;8.92;100;951.3303;;;;
2024/02/18 04:55:45;;;;;;;25.3;14.4;;;;;;;8.95;100;951.4246;;;;
2024/02/18 04:58:10;;;;;;;24.2;14.4;;;;;;;8.99;100;951.3058;;;;
2024/02/18 05:00:35;;;;;;;27.3;16;;;;;;;9.01;100;951.419;;;;
2024/02/18 05:03:00;;;;;;;25.2;14.7;;;;;;;8.96;100;951.4456;;;;
2024/02/18 05:05:25;;;;;;;23.6;13.6;;;;;;;8.97;100;951.515;;;;
2024/02/18 05:07:50;;;;;;;23.2;13.8;;;;;;;8.94;100;951.5264;;;;
2024/02/18 05:10:15;;;;;;;22.7;12.7;;;;;;;8.95;100;951.5469;;;;
2024/02/18 05:12:40;;;;;;;23.1;12.9;;;;;;;8.94;100;951.4973;;;;
2024/02/18 05:15:06;;;;;;;21.3;12.5;;;;;;;8.9;100;951.4974;;;;
2024/02/18 05:17:30;;;;;;;20.8;12.4;;;;;;;8.91;100;951.4612;;;;
2024/02/18 05:19:55;;;;;;;22.8;12.5;;;;;;;8.92;100;951.4367;;;;
2024/02/18 05:22:21;;;;;;;22.7;13.6;;;;;;;8.94;100;951.4178;;;;
2024/02/18 05:24:48;;;;;;;22;13.5;;;;;;;8.93;100;951.4811;;;;
2024/02/18 05:27:11;;;;;;;20.5;12.8;;;;;;;8.96;99.97266;951.4678;;;;
2024/02/18 05:29:36;;;;;;;20;12.3;;;;;;;9;99.8125;951.428;;;;
2024/02/18 05:32:01;;;;;;;18.2;10.9;;;;;;;9;99.79004;951.5273;;;;
2024/02/18 05:34:26;;;;;;;19.5;11.8;;;;;;;8.99;99.7627;951.5037;;;;
2024/02/18 05:36:51;;;;;;;21.8;12.2;;;;;;;9;99.72168;951.5463;;;;
2024/02/18 05:39:16;;;;;;;20.6;12.5;;;;;;;9.06;99.2998;951.5344;;;;
2024/02/18 05:41:42;;;;;;;18.4;11.9;;;;;;;8.98;99.56738;951.5416;;;;
2024/02/18 05:44:07;;;;;;;18.3;11.4;;;;;;;8.99;99.53516;951.4625;;;;
2024/02/18 05:46:32;;;;;;;18.1;11.2;;;;;;;8.97;99.37207;951.5275;;;;
2024/02/18 05:48:57;;;;;;;19.8;12;;;;;;;8.98;99.79492;951.4986;;;;
2024/02/18 05:51:22;;;;;;;18;11.1;;;;;;;8.91;100;951.5745;;;;
2024/02/18 05:54:08;;;;;;;21.7;11.2;;;;;;;8.96;99.9502;951.6108;;;;
2024/02/18 05:56:33;;;;;;;20;11.4;;;;;;;8.91;99.59668;951.5795;;;;
2024/02/18 05:58:59;;;;;;;19.6;11.8;;;;;;;8.88;100;951.5886;;;;
2024/02/18 06:01:24;;;;;;;20.8;12.3;;;;;;;8.89;100;951.6369;;;;
2024/02/18 06:03:49;;;;;;;18.6;10.6;;;;;;;8.94;99.88965;951.5958;;;;
2024/02/18 06:06:15;;;;;;;19.5;11.4;;;;;;;8.95;99.70898;951.5311;;;;
2024/02/18 06:08:40;;;;;;;20.3;11.4;;;;;;;8.98;99.48828;951.6026;;;;
2024/02/18 06:11:05;;;;;;;19.2;11.1;;;;;;;9.03;99.22754;951.5723;;;;
2024/02/18 06:13:30;;;;;;;20.6;12.1;;;;;;;8.99;99.30762;951.5991;;;;
2024/02/18 06:15:55;;;;;;;16.2;10.3;;;;;;;8.96;99.41309;951.5621;;;;
2024/02/18 06:18:21;;;;;;;18.6;11.3;;;;;;;8.95;99.51367;951.5776;;;;
2024/02/18 06:20:46;;;;;;;17.6;9.9;;;;;;;8.87;99.84961;951.6019;;;;
2024/02/18 06:23:11;;;;;;;16.3;9.7;;;;;;;8.84;99.69531;951.5786;;;;
2024/02/18 06:25:37;;;;;;;14.9;10.4;;;;;;;8.83;99.40723;951.5613;;;;
2024/02/18 06:28:01;;;;;;;16.8;11.3;;;;;;;8.89;99.29688;951.5574;;;;
2024/02/18 06:30:26;;;;;;;16;9.6;;;;;;;8.75;99.00195;951.5368;;;;
2024/02/18 06:32:51;;;;;;;15.3;9.7;;;;;;;8.73;99.55469;951.608;;;;
2024/02/18 06:35:16;;;;;;;16.4;10.1;;;;;;;8.75;99.66113;951.558;;;;
2024/02/18 06:37:42;;;;;;;16.8;10.5;;;;;;;8.74;99.77246;951.529;;;;
2024/02/18 06:40:06;;;;;;;16.6;10;;;;;;;8.75;99.95703;951.5717;;;;
2024/02/18 06:42:32;;;;;;;13.4;8.9;;;;;;;8.78;99.71484;951.6078;;;;
2024/02/18 06:44:57;;;;;;;13.1;8.2;;;;;;;8.82;99.39551;951.6484;;;;
2024/02/18 06:47:22;;;;;;;13.9;9;;;;;;;8.83;99.40723;951.6344;;;;
2024/02/18 06:49:49;;;;;;;17.7;9.8;;;;;;;8.85;99.35645;951.6497;;;;
2024/02/18 06:52:13;;;;;;;14.9;9.8;;;;;;;8.85;99.40234;951.6002;;;;
2024/02/18 06:54:37;;;;;;;14.1;9.5;;;;;;;8.79;99.78516;951.616;;;;
2024/02/18 06:57:02;;;;;;;15.8;9.6;;;;;;;8.74;100;951.6498;;;;
2024/02/18 06:59:27;;;;;;;14.8;9.6;;;;;;;8.8;100;951.6118;;;;
2024/02/18 07:01:52;;;;;;;18.3;10.7;;;;;;;8.89;100;951.6192;;;;
2024/02/18 07:04:17;;;;;;;19.4;11.7;;;;;;;8.99;100;951.608;;;;
2024/02/18 07:06:43;;;;;;;24.6;14.6;;;;;;;9.14;99.96777;951.5547;;;;
2024/02/18 07:09:08;;;;;;;23.4;14.7;;;;;;;9.52;99.47656;951.5306;;;;
2024/02/18 07:11:33;;;;;;;19;12.9;;;;;;;10;97.69336;951.5131;;;;
2024/02/18 07:13:58;;;;;;;18.6;11.4;;;;;;;10.69;94.58203;951.4462;;;;
2024/02/18 07:16:24;;;;;;;15.6;9.8;;;;;;;11.55;89.57617;951.42;;;;
2024/02/18 07:18:49;;;;;;;14.3;9;;;;;;;12.38;85.68848;951.3251;;;;
2024/02/18 07:21:14;;;;;;;13.6;8.2;;;;;;;12.96;81.55273;951.2445;;;;
2024/02/18 07:23:39;;;;;;;11.6;7.7;;;;;;;13.55;79.45703;951.2343;;;;
2024/02/18 07:26:04;;;;;;;11.7;7.7;;;;;;;13.89;77.5752;951.2035;;;;
2024/02/18 07:28:29;;;;;;;11.9;7.6;;;;;;;14.21;75.37305;951.2067;;;;
2024/02/18 07:30:55;;;;;;;9.4;6.6;;;;;;;14.31;75.49512;951.1469;;;;
2024/02/18 07:33:20;;;;;;;9.7;7.1;;;;;;;14.56;73.94922;951.1033;;;;
2024/02/18 07:35:45;;;;;;;11.4;7.7;;;;;;;14.4;73.55273;951.0648;;;;
2024/02/18 07:38:11;;;;;;;13.1;8;;;;;;;14.59;72.70898;951.0396;;;;
2024/02/18 07:40:35;;;;;;;9.8;7.5;;;;;;;14.5;72.10645;951.0366;;;;
2024/02/18 07:43:00;;;;;;;10.8;7.4;;;;;;;14.66;73.32031;950.9783;;;;
2024/02/18 07:45:26;;;;;;;9.9;6.8;;;;;;;14.88;70.88867;950.8965;;;;
2024/02/18 07:47:50;;;;;;;8.3;6.1;;;;;;;14.76;71.51563;950.8457;;;;
2024/02/18 07:50:16;;;;;;;9.3;5.8;;;;;;;14.67;71.46387;950.8389;;;;
2024/02/18 07:52:41;;;;;;;8.3;5.8;;;;;;;14.69;71.36621;950.8561;;;;
2024/02/18 07:55:06;;;;;;;8.7;6.2;;;;;;;14.88;70.31152;950.8388;;;;
2024/02/18 07:57:31;;;;;;;7.5;5.9;;;;;;;14.72;70.30859;950.7988;;;;
2024/02/18 07:59:56;;;;;;;6.7;5.5;;;;;;;14.56;71.52832;950.7681;;;;
2024/02/18 08:02:21;;;;;;;6.5;5.4;;;;;;;14.6;70.2207;950.8817;;;;
2024/02/18 08:04:46;;;;;;;7.7;5.4;;;;;;;14.57;70.71191;950.8638;;;;
2024/02/18 08:07:11;;;;;;;6.8;5.4;;;;;;;14.72;70.49512;950.8044;;;;
2024/02/18 08:09:37;;;;;;;6.7;5.2;;;;;;;14.75;70.0498;950.7374;;;;
2024/02/18 08:12:02;;;;;;;6.2;4.9;;;;;;;15.01;69.14453;950.7603;;;;
2024/02/18 08:14:27;;;;;;;5.5;4.3;;;;;;;15.35;66.53125;950.8508;;;;
2024/02/18 08:16:53;;;;;;;5.1;3.8;;;;;;;15.59;67.72266;950.776;;;;
2024/02/18 08:19:17;;;;;;;15.7;10.4;;;;;;;15.58;66.53125;950.754;;;;
2024/02/18 08:21:42;;;;;;;7.8;5.5;;;;;;;15.78;65.99707;950.7123;;;;
2024/02/18 08:24:07;;;;;;;15;8.9;;;;;;;15.75;65.01074;950.6672;;;;
2024/02/18 08:26:32;;;;;;;4.9;3.3;;;;;;;15.92;64.08789;950.6152;;;;
2024/02/18 08:28:58;;;;;;;3.9;3.2;;;;;;;15.68;64.57227;950.603;;;;
2024/02/18 08:31:23;;;;;;;4.4;3.3;;;;;;;16.21;64.23438;950.56;;;;
2024/02/18 08:33:48;;;;;;;4.1;3.1;;;;;;;16.58;63.6748;950.5405;;;;
2024/02/18 08:36:13;;;;;;;3.1;2.6;;;;;;;16.9;61.86719;950.4908;;;;
2024/02/18 08:38:39;;;;;;;2.5;2.3;;;;;;;17.3;61.64648;950.5527;;;;
2024/02/18 08:41:03;;;;;;;4.1;2.6;;;;;;;17.74;59.62891;950.4635;;;;
2024/02/18 08:43:28;;;;;;;3.5;2.4;;;;;;;17.99;58.07227;950.497;;;;
2024/02/18 08:45:53;;;;;;;2.3;2;;;;;;;18.16;56.875;950.4208;;;;
2024/02/18 08:48:18;;;;;;;2.1;1.7;;;;;;;18.21;55.93848;950.4626;;;;
2024/02/18 08:50:44;;;;;;;2.1;1.9;;;;;;;18.52;56.07129;950.484;;;;
2024/02/18 08:53:11;;;;;;;2.1;1.6;;;;;;;18.73;54.79492;950.355;;;;
2024/02/18 08:55:34;;;;;;;1.7;1.6;;;;;;;18.36;54.8418;950.4936;;;;
2024/02/18 08:57:59;;;;;;;2.3;1.5;;;;;;;18.54;54.51563;950.4969;;;;
2024/02/18 09:00:24;;;;;;;1.9;1.7;;;;;;;18.56;54.85645;950.454;;;;
2024/02/18 09:02:49;;;;;;;1.6;1.3;;;;;;;19.06;52.60156;950.4482;;;;
2024/02/18 09:05:14;;;;;;;1.7;1.6;;;;;;;18.81;51.83887;950.4169;;;;
2024/02/18 09:07:39;;;;;;;2.1;1.8;;;;;;;18.87;53.00879;950.342;;;;
2024/02/18 09:10:04;;;;;;;1.6;1.5;;;;;;;19.49;51.9873;950.3911;;;;
2024/02/18 09:12:30;;;;;;;1.8;1.3;;;;;;;19.89;51.48828;950.3983;;;;
2024/02/18 09:14:56;;;;;;;1.5;1.4;;;;;;;19.96;48.85938;950.3097;;;;
2024/02/18 09:17:22;;;;;;;1.2;1.1;;;;;;;20.11;49.01563;950.3129;;;;
2024/02/18 09:19:46;;;;;;;1.3;1.2;;;;;;;20.3;48.96582;950.3416;;;;
2024/02/18 09:22:10;;;;;;;1.2;1.1;;;;;;;20.19;48.84863;950.3049;;;;
2024/02/18 09:24:35;;;;;;;1.2;1.1;;;;;;;20.34;48.43359;950.3314;;;;
2024/02/18 09:27:00;;;;;;;1;0.9;;;;;;;20.26;48.14551;950.2803;;;;
2024/02/18 09:29:32;;;;;;;0.7;0.7;;;;;;;20.27;47.38672;950.2665;;;;
2024/02/18 09:31:57;;;;;;;1.7;1;;;;;;;20.01;49.13184;950.3045;;;;
2024/02/18 09:34:23;;;;;;;1.3;1.2;;;;;;;19.72;48.7041;950.2594;;;;
2024/02/18 09:36:49;;;;;;;1.2;1.1;;;;;;;19.94;50.65332;950.2169;;;;
2024/02/18 09:39:13;;;;;;;0.9;0.9;;;;;;;20.07;47.78613;950.1199;;;;
2024/02/18 09:41:38;;;;;;;1.3;1.2;;;;;;;20.69;46.53223;950.163;;;;
2024/02/18 09:44:05;;;;;;;0.8;0.8;;;;;;;20.28;48.68457;950.0989;;;;
2024/02/18 09:46:29;;;;;;;1;1;;;;;;;20.26;47.53809;950.0466;;;;
2024/02/18 09:48:54;;;;;;;1.1;1;;;;;;;20.35;47.6875;950.0684;;;;
2024/02/18 09:51:19;;;;;;;2.8;1;;;;;;;20.53;48.37305;950.0058;;;;
2024/02/18 09:53:44;;;;;;;2.7;1.4;;;;;;;20.81;46.79004;950.0014;;;;
2024/02/18 09:56:10;;;;;;;1.2;0.8;;;;;;;20.51;46.12793;949.9089;;;;
2024/02/18 09:58:34;;;;;;;1.4;1;;;;;;;20.36;47.32715;949.9056;;;;
2024/02/18 10:01:00;;;;;;;0.8;0.8;;;;;;;20.89;45.46582;949.9133;;;;
2024/02/18 10:03:25;;;;;;;1;0.8;;;;;;;21.06;44.94531;949.9351;;;;
2024/02/18 10:05:50;;;;;;;0.7;0.7;;;;;;;21.2;44.25781;949.8937;;;;
2024/02/18 10:08:15;;;;;;;0.9;0.9;;;;;;;21.17;45.35449;949.86;;;;
2024/02/18 10:10:40;;;;;;;0.8;0.8;;;;;;;21.26;44.93066;949.7257;;;;
2024/02/18 10:13:05;;;;;;;1;1;;;;;;;21.01;45.4541;949.788;;;;
2024/02/18 10:15:31;;;;;;;1.1;1;;;;;;;20.98;44.28223;949.7301;;;;
2024/02/18 10:17:55;;;;;;;1.1;1;;;;;;;21.31;43.40234;949.5897;;;;
2024/02/18 10:20:20;;;;;;;1.2;1.1;;;;;;;21.36;44.02832;949.6279;;;;
2024/02/18 10:22:45;;;;;;;1;0.8;;;;;;;21.59;43.73438;949.5933;;;;
2024/02/18 10:25:11;;;;;;;0.7;0.7;;;;;;;21.16;43.15332;949.5256;;;;
2024/02/18 10:27:36;;;;;;;1.1;1;;;;;;;21.09;44.76172;949.4244;;;;
2024/02/18 10:30:02;;;;;;;0.8;0.8;;;;;;;21.39;42.90723;949.4128;;;;
2024/02/18 10:32:29;;;;;;;0.8;0.8;;;;;;;21.36;42.76367;949.3929;;;;
2024/02/18 10:34:52;;;;;;;0.8;0.7;;;;;;;21.43;42.21973;949.4312;;;;
2024/02/18 10:37:17;;;;;;;1.2;1;;;;;;;21.43;42.6416;949.2869;;;;
2024/02/18 10:39:42;;;;;;;1.9;0.9;;;;;;;21.78;43.27344;949.2971;;;;
2024/02/18 10:42:09;;;;;;;1.2;0.9;;;;;;;22.19;41.30859;949.2001;;;;
2024/02/18 10:44:33;;;;;;;1.6;0.8;;;;;;;21.78;41.87891;949.2023;;;;
2024/02/18 10:46:58;;;;;;;0.6;0.6;;;;;;;21.9;42.41797;949.1177;;;;
2024/02/18 10:49:23;;;;;;;1;0.9;;;;;;;22.37;41.05566;949.0681;;;;
2024/02/18 10:51:48;;;;;;;1;0.9;;;;;;;22.15;39.72168;949.0053;;;;
2024/02/18 10:54:14;;;;;;;0.6;0.6;;;;;;;22.11;40.77344;948.9891;;;;
2024/02/18 10:56:40;;;;;;;0.6;0.6;;;;;;;22.16;40.07422;948.9709;;;;
2024/02/18 10:59:03;;;;;;;0.5;0.5;;;;;;;21.86;39.28516;948.8606;;;;
2024/02/18 11:01:29;;;;;;;0.8;0.5;;;;;;;22.19;39.33789;948.7838;;;;
2024/02/18 11:03:54;;;;;;;0.5;0.5;;;;;;;22.45;38.88086;948.7559;;;;
2024/02/18 11:06:19;;;;;;;0.6;0.6;;;;;;;21.89;39.82715;948.6517;;;;
2024/02/18 11:08:45;;;;;;;0.5;0.5;;;;;;;22.05;39.74707;948.655;;;;
2024/02/18 11:11:09;;;;;;;0.7;0.6;;;;;;;22.15;38.10352;948.6312;;;;
2024/02/18 11:13:34;;;;;;;0.4;0.4;;;;;;;21.82;39.29395;948.5853;;;;
2024/02/18 11:15:59;;;;;;;0.6;0.5;;;;;;;21.35;39.75586;948.5057;;;;
2024/02/18 11:18:24;;;;;;;0.4;0.4;;;;;;;21.2;39.66016;948.4888;;;;
2024/02/18 11:20:49;;;;;;;0.4;0.4;;;;;;;21.24;39.9209;948.4596;;;;
2024/02/18 11:23:14;;;;;;;0.4;0.4;;;;;;;21.14;40.57813;948.3787;;;;
2024/02/18 11:25:39;;;;;;;0.4;0.4;;;;;;;20.84;42.25781;948.3627;;;;
2024/02/18 11:28:04;;;;;;;1.9;0.5;;;;;;;20.49;43.89551;948.2687;;;;
2024/02/18 11:30:30;;;;;;;0.6;0.5;;;;;;;20.27;43.37207;948.2174;;;;
2024/02/18 11:32:55;;;;;;;2.9;0.7;;;;;;;20.55;43.30469;948.1514;;;;
2024/02/18 11:35:20;;;;;;;0.9;0.6;;;;;;;20.42;42.25293;948.0622;;;;
2024/02/18 11:37:45;;;;;;;1.3;0.5;;;;;;;20.38;42.23828;948.0809;;;;
2024/02/18 11:40:10;;;;;;;0.4;0.4;;;;;;;20.02;42.58887;948.0122;;;;
2024/02/18 11:42:35;;;;;;;0.7;0.6;;;;;;;19.68;42.68359;947.9369;;;;
2024/02/18 11:45:00;;;;;;;0.4;0.4;;;;;;;19.36;42.76855;947.9416;;;;
2024/02/18 11:47:25;;;;;;;0.5;0.5;;;;;;;18.92;43.41211;947.8798;;;;
2024/02/18 11:49:50;;;;;;;0.6;0.6;;;;;;;18.82;46.67383;947.8506;;;;
2024/02/18 11:54:13;;;;;;;0.5;0.5;;;;;;;18.76;45.66602;947.7903;;;;
2024/02/18 11:56:38;;;;;;;1.3;0.7;;;;;;;18.45;46.15723;947.715;;;;
2024/02/18 11:59:03;;;;;;;0.7;0.7;;;;;;;18.43;46.87598;947.6741;;;;
2024/02/18 12:01:30;;;;;;;0.5;0.5;;;;;;;18.35;46.80957;947.6855;;;;
2024/02/18 12:03:53;;;;;;;1.2;0.6;;;;;;;18.25;47.4502;947.6763;;;;
2024/02/18 12:06:18;;;;;;;0.5;0.5;;;;;;;17.97;46.53711;947.6398;;;;
2024/02/18 12:08:43;;;;;;;1.2;0.6;;;;;;;17.83;46.8125;947.6025;;;;
2024/02/18 12:11:08;;;;;;;0.9;0.7;;;;;;;17.74;47.10449;947.5268;;;;
2024/02/18 12:13:34;;;;;;;0.7;0.7;;;;;;;17.53;47.90625;947.5284;;;;
2024/02/18 12:15:59;;;;;;;1.1;0.4;;;;;;;17.47;47.8418;947.5382;;;;
2024/02/18 12:18:24;;;;;;;0.5;0.5;;;;;;;17.38;47.84277;947.4833;;;;
2024/02/18 12:20:50;;;;;;;0.7;0.6;;;;;;;17.38;48.93262;947.3851;;;;
2024/02/18 12:23:14;;;;;;;0.5;0.5;;;;;;;17.23;49.04395;947.457;;;;
2024/02/18 12:25:39;;;;;;;0.6;0.6;;;;;;;17.09;49.85156;947.4594;;;;
2024/02/18 12:28:04;;;;;;;0.7;0.6;;;;;;;17.12;49.5293;947.3853;;;;
2024/02/18 12:30:29;;;;;;;1.2;0.8;;;;;;;17.04;51.21289;947.486;;;;
2024/02/18 12:32:54;;;;;;;1.2;1.1;;;;;;;16.96;54.43555;947.4462;;;;
2024/02/18 12:35:20;;;;;;;1.8;1.6;;;;;;;16.84;56.28613;947.4631;;;;
2024/02/18 12:37:45;;;;;;;2.7;2.1;;;;;;;16.82;58.24316;947.4462;;;;
2024/02/18 12:40:10;;;;;;;2.3;2.1;;;;;;;16.54;60.84375;947.4902;;;;
2024/02/18 12:42:35;;;;;;;2.6;2.4;;;;;;;16.34;62.25098;947.4252;;;;
2024/02/18 12:45:00;;;;;;;2.9;2.4;;;;;;;15.95;63.13281;947.4839;;;;
2024/02/18 12:47:25;;;;;;;4.2;2.7;;;;;;;15.96;63.61914;947.4365;;;;
2024/02/18 12:49:50;;;;;;;3.2;2.2;;;;;;;15.67;64.03906;947.4383;;;;
2024/02/18 12:52:16;;;;;;;3.1;2.5;;;;;;;15.68;64.56055;947.4286;;;;
2024/02/18 12:54:41;;;;;;;2.9;2.6;;;;;;;15.56;64.8418;947.3264;;;;
2024/02/18 12:57:06;;;;;;;3.6;2.4;;;;;;;15.47;65.26953;947.3909;;;;
2024/02/18 12:59:31;;;;;;;2.9;2.2;;;;;;;15.33;65.65332;947.3786;;;;
2024/02/18 13:01:56;;;;;;;2.7;2.4;;;;;;;15.43;66.03613;947.3826;;;;
2024/02/18 13:04:21;;;;;;;3;2.6;;;;;;;15.5;66.56641;947.3782;;;;
2024/02/18 13:06:48;;;;;;;3.2;2.6;;;;;;;15.22;66.97363;947.3362;;;;
2024/02/18 13:09:11;;;;;;;3.1;2.3;;;;;;;15.2;66.34668;947.335;;;;
2024/02/18 13:11:36;;;;;;;2.6;2.3;;;;;;;15.15;67.18262;947.3588;;;;
2024/02/18 13:14:02;;;;;;;2.3;2.1;;;;;;;15.12;66.93555;947.2726;;;;
2024/02/18 13:16:27;;;;;;;2.9;2.2;;;;;;;15.18;66.08008;947.2885;;;;
2024/02/18 13:18:54;;;;;;;2.8;2.2;;;;;;;15.13;66.55469;947.1877;;;;
2024/02/18 13:21:21;;;;;;;2.9;2.3;;;;;;;15.01;67.56543;947.2164;;;;
2024/02/18 13:23:42;;;;;;;3.2;2.5;;;;;;;15.03;67.84473;947.1429;;;;
2024/02/18 13:26:07;;;;;;;2.3;2.1;;;;;;;15.02;67.38184;947.1205;;;;
2024/02/18 13:28:32;;;;;;;2.7;2.4;;;;;;;15;67.59863;947.0872;;;;
2024/02/18 13:30:57;;;;;;;2.7;2.2;;;;;;;14.96;67.87988;947.0732;;;;
2024/02/18 13:33:22;;;;;;;3.1;2.6;;;;;;;15.04;67.96191;947.0676;;;;
2024/02/18 13:35:48;;;;;;;2.9;2.4;;;;;;;14.89;68.94238;947.0407;;;;
2024/02/18 13:38:13;;;;;;;2.7;2.3;;;;;;;14.64;69.62695;947.0626;;;;
2024/02/18 13:40:38;;;;;;;2.5;2.3;;;;;;;14.81;69.14746;947.0134;;;;
2024/02/18 13:43:03;;;;;;;5;2.8;;;;;;;14.46;69.79395;946.9207;;;;
2024/02/18 13:45:28;;;;;;;3;2.6;;;;;;;14.32;69.93359;946.95;;;;
2024/02/18 13:47:54;;;;;;;2.8;2.6;;;;;;;14.51;69.76855;946.9531;;;;
2024/02/18 13:50:19;;;;;;;2.7;2.5;;;;;;;14.54;70.03906;946.9485;;;;
2024/02/18 13:52:43;;;;;;;3.3;2.8;;;;;;;14.71;70.07813;946.8619;;;;
2024/02/18 13:55:09;;;;;;;3.2;2.9;;;;;;;14.61;70.47559;946.9194;;;;
2024/02/18 13:57:34;;;;;;;2.9;2.6;;;;;;;14.49;70.45508;946.8406;;;;
2024/02/18 13:59:59;;;;;;;2.7;2.5;;;;;;;14.65;70.29883;946.7966;;;;
2024/02/18 14:02:24;;;;;;;3;2.7;;;;;;;14.65;69.69824;946.7949;;;;
2024/02/18 14:10:39;;;;;;;2.9;2;;;;;;;-143.51;100;1138.755;;;;
2024/02/18 14:17:37;;;;;;;3.8;2.5;;;;;;;;;;;;;
2024/02/18 14:20:04;;;;;;;2.7;2.4;;;;;;;;;;;;;
2024/02/18 14:22:29;;;;;;;3.2;2.2;;;;;;;;;;;;;
2024/02/18 14:24:54;;;;;;;3.5;2.5;;;;;;;;;;;;;
2024/02/18 14:27:17;;;;;;;3;2.5;;;;;;;;;;;;;
2024/02/18 14:29:42;;;;;;;2.7;2.3;;;;;;;;;;;;;
2024/02/18 14:32:07;;;;;;;3.3;2.2;;;;;;;;;;;;;
2024/02/18 14:34:35;;;;;;;2.8;2.3;;;;;;;;;;;;;
2024/02/18 14:36:58;;;;;;;2.9;2.1;;;;;;;;;;;;;
2024/02/18 14:39:23;;;;;;;2.2;2;;;;;;;;;;;;;
2024/02/18 14:41:48;;;;;;;3;2.4;;;;;;;;;;;;;
2024/02/18 14:44:14;;;;;;;2.3;2.1;;;;;;;;;;;;;
2024/02/18 14:46:38;;;;;;;3;2.5;;;;;;;;;;;;;